Time;durP1;ratioP1;P1;durP2;ratioP2;P2;SDS_P1;SDS_P2;PMS_P1;PMS_P2;Temp;Humidity;BMP_temperature;BMP_pressure;BME280_temperature;BME280_humidity;BME280_pressure;Samples;Min_cycle;Max_cycle;Signal;HPM_P1;HPM_P2
2021/05/27 00:02:24;;;;;;;0.50;0.40;;;10.40;99.90;;;;;;5072440;28;20450;-53
2021/05/27 00:04:52;;;;;;;1.30;0.50;;;10.60;99.90;;;;;;5070009;28;20513;-53
2021/05/27 00:07:19;;;;;;;0.87;0.50;;;10.60;99.90;;;;;;5072480;28;20971;-53
2021/05/27 00:09:45;;;;;;;1.43;0.50;;;10.70;99.90;;;;;;5072585;28;20887;-53
2021/05/27 00:12:13;;;;;;;1.20;0.60;;;10.70;99.90;;;;;;5072415;28;21014;-53
2021/05/27 00:14:39;;;;;;;0.80;0.50;;;10.80;99.90;;;;;;5071201;28;20447;-54
2021/05/27 00:17:06;;;;;;;1.00;0.50;;;10.70;99.90;;;;;;5072222;28;20538;-54
2021/05/27 00:19:32;;;;;;;1.83;0.60;;;10.80;99.90;;;;;;5072496;28;20458;-53
2021/05/27 00:21:59;;;;;;;0.70;0.57;;;10.70;99.90;;;;;;5072577;28;20439;-53
2021/05/27 00:24:25;;;;;;;1.73;0.80;;;10.70;99.90;;;;;;5071874;28;20447;-53
2021/05/27 00:26:51;;;;;;;4.87;1.70;;;10.80;99.90;;;;;;5071787;28;20474;-53
2021/05/27 00:29:19;;;;;;;7.90;2.97;;;10.60;99.90;;;;;;5071842;28;20454;-53
2021/05/27 00:31:45;;;;;;;1.60;1.10;;;10.70;99.90;;;;;;5072370;28;20485;-53
2021/05/27 00:34:12;;;;;;;1.70;0.80;;;10.70;99.90;;;;;;5071876;28;20450;-53
2021/05/27 00:36:38;;;;;;;0.60;0.50;;;10.80;99.90;;;;;;5071884;28;20463;-53
2021/05/27 00:39:08;;;;;;;0.60;0.50;;;10.80;99.90;;;;;;5072040;28;20496;-53
2021/05/27 00:41:34;;;;;;;0.63;0.50;;;10.70;99.90;;;;;;5071488;28;20842;-53
2021/05/27 00:44:04;;;;;;;0.60;0.50;;;10.80;99.90;;;;;;5071983;28;20477;-53
2021/05/27 00:46:31;;;;;;;0.83;0.50;;;10.80;99.90;;;;;;5071660;28;20479;-53
2021/05/27 00:48:59;;;;;;;0.60;0.50;;;10.80;99.90;;;;;;5071712;28;20443;-53
2021/05/27 00:51:25;;;;;;;1.07;0.50;;;10.70;99.90;;;;;;5071688;28;20486;-53
2021/05/27 00:53:52;;;;;;;0.60;0.50;;;10.70;99.90;;;;;;5071686;28;20449;-53
2021/05/27 00:56:21;;;;;;;0.60;0.50;;;10.70;99.90;;;;;;5071543;28;20470;-53
2021/05/27 00:58:47;;;;;;;0.70;0.43;;;10.70;99.90;;;;;;5071861;28;20457;-53
2021/05/27 01:01:14;;;;;;;0.70;0.50;;;10.80;99.90;;;;;;5072015;28;20458;-53
2021/05/27 01:03:41;;;;;;;0.60;0.50;;;10.90;99.90;;;;;;5071017;28;20454;-53
2021/05/27 01:06:07;;;;;;;0.60;0.53;;;10.90;99.90;;;;;;5064048;28;21007;-53
2021/05/27 01:08:34;;;;;;;0.80;0.43;;;10.70;99.90;;;;;;5071710;28;20450;-53
2021/05/27 01:11:01;;;;;;;0.97;0.50;;;10.80;99.90;;;;;;5071590;28;20454;-53
2021/05/27 01:13:27;;;;;;;0.60;0.40;;;10.80;99.90;;;;;;5071405;28;21006;-53
2021/05/27 01:15:54;;;;;;;0.60;0.40;;;10.80;99.90;;;;;;5076477;28;20508;-53
2021/05/27 01:18:23;;;;;;;0.70;0.50;;;10.70;99.90;;;;;;5077941;28;20462;-53
2021/05/27 01:20:52;;;;;;;0.70;0.50;;;10.70;99.90;;;;;;5078053;28;20454;-53
2021/05/27 01:23:20;;;;;;;0.60;0.50;;;10.70;99.90;;;;;;5078191;28;20441;-53
2021/05/27 01:25:49;;;;;;;0.60;0.50;;;10.80;99.90;;;;;;5078104;28;20504;-53
2021/05/27 01:28:16;;;;;;;2.00;0.50;;;10.80;99.90;;;;;;5077914;28;20454;-53
2021/05/27 01:30:44;;;;;;;0.60;0.40;;;10.90;99.90;;;;;;5078352;28;20458;-53
2021/05/27 01:33:12;;;;;;;1.37;0.70;;;10.90;99.90;;;;;;5078447;28;20482;-53
2021/05/27 01:35:38;;;;;;;1.47;0.90;;;10.80;99.90;;;;;;5077278;28;20528;-53
2021/05/27 01:38:14;;;;;;;1.00;0.90;;;10.60;99.90;;;;;;5078056;28;21056;-52
2021/05/27 01:40:42;;;;;;;1.13;0.93;;;10.50;99.90;;;;;;5078153;28;20457;-53
2021/05/27 01:43:09;;;;;;;1.43;0.80;;;10.60;99.90;;;;;;5078138;28;20853;-54
2021/05/27 01:45:36;;;;;;;2.10;0.73;;;10.60;99.90;;;;;;5077587;28;20986;-53
2021/05/27 01:48:03;;;;;;;0.60;0.60;;;10.60;99.90;;;;;;5077723;28;20470;-54
2021/05/27 01:50:29;;;;;;;0.60;0.50;;;10.50;99.90;;;;;;5077725;28;20454;-53
2021/05/27 01:52:57;;;;;;;0.93;0.50;;;10.40;99.90;;;;;;5077830;28;20489;-53
2021/05/27 01:55:24;;;;;;;0.70;0.50;;;10.60;99.90;;;;;;5077367;28;20464;-54
2021/05/27 01:57:51;;;;;;;0.60;0.50;;;10.70;99.90;;;;;;5077938;28;20526;-53
2021/05/27 02:00:19;;;;;;;0.60;0.47;;;10.60;99.90;;;;;;5078010;28;20446;-53
2021/05/27 02:02:46;;;;;;;0.70;0.57;;;10.50;99.90;;;;;;5077809;28;20503;-53
2021/05/27 02:05:14;;;;;;;0.70;0.50;;;10.50;99.90;;;;;;5077369;28;20451;-54
2021/05/27 02:07:41;;;;;;;0.70;0.50;;;10.70;99.90;;;;;;5077610;28;20473;-53
2021/05/27 02:10:09;;;;;;;0.60;0.50;;;10.70;99.90;;;;;;5077673;28;20454;-53
2021/05/27 02:12:35;;;;;;;0.50;0.40;;;10.70;99.90;;;;;;5077919;28;20470;-53
2021/05/27 02:15:04;;;;;;;1.27;0.70;;;10.80;99.90;;;;;;5077021;28;20453;-53
2021/05/27 02:17:31;;;;;;;0.57;0.40;;;10.80;99.90;;;;;;5077489;28;20474;-54
2021/05/27 02:19:57;;;;;;;1.53;0.57;;;10.70;99.90;;;;;;5077790;28;20981;-53
2021/05/27 02:22:24;;;;;;;0.70;0.60;;;10.80;99.90;;;;;;5077868;28;20449;-53
2021/05/27 02:24:50;;;;;;;0.77;0.50;;;10.80;99.90;;;;;;5077377;28;20478;-53
2021/05/27 02:27:17;;;;;;;1.23;0.50;;;10.80;99.90;;;;;;5074219;28;20474;-53
2021/05/27 02:29:44;;;;;;;0.77;0.60;;;10.80;99.90;;;;;;5073920;28;20454;-54
2021/05/27 02:32:11;;;;;;;0.90;0.53;;;10.80;99.90;;;;;;5074299;28;21018;-53
2021/05/27 02:34:38;;;;;;;0.60;0.50;;;10.70;99.90;;;;;;5073363;28;21133;-53
2021/05/27 02:37:04;;;;;;;0.50;0.50;;;10.70;99.90;;;;;;5074024;28;20473;-53
2021/05/27 02:39:31;;;;;;;0.67;0.40;;;10.70;99.90;;;;;;5074227;28;20451;-53
2021/05/27 02:41:57;;;;;;;0.60;0.60;;;10.70;99.90;;;;;;5074364;28;20442;-53
2021/05/27 02:44:24;;;;;;;0.70;0.70;;;10.70;99.90;;;;;;5073385;28;20450;-54
2021/05/27 02:46:50;;;;;;;0.80;0.43;;;10.70;99.90;;;;;;5074126;28;20493;-54
2021/05/27 02:49:18;;;;;;;0.70;0.53;;;10.70;99.90;;;;;;5073815;28;20807;-53
2021/05/27 02:51:45;;;;;;;0.60;0.60;;;10.80;99.90;;;;;;5074205;28;20491;-53
2021/05/27 02:54:12;;;;;;;0.80;0.60;;;10.70;99.90;;;;;;5073629;28;20450;-54
2021/05/27 02:56:38;;;;;;;2.80;0.70;;;10.70;99.90;;;;;;5074039;28;20496;-53
2021/05/27 02:59:07;;;;;;;1.10;0.77;;;10.70;99.90;;;;;;5073825;28;20457;-54
2021/05/27 03:01:34;;;;;;;1.03;0.90;;;10.60;99.90;;;;;;5073802;28;20485;-53
2021/05/27 03:04:00;;;;;;;0.60;0.60;;;10.60;99.90;;;;;;5073722;28;20527;-53
2021/05/27 03:06:28;;;;;;;0.80;0.60;;;10.50;99.90;;;;;;5073694;28;20477;-54
2021/05/27 03:08:54;;;;;;;0.63;0.60;;;10.50;99.90;;;;;;5073932;28;20451;-54
2021/05/27 03:11:21;;;;;;;0.80;0.80;;;10.50;99.90;;;;;;5073556;28;20495;-54
2021/05/27 03:13:48;;;;;;;1.40;0.90;;;10.40;99.90;;;;;;5073112;28;20520;-54
2021/05/27 03:16:14;;;;;;;0.80;0.70;;;10.40;99.90;;;;;;5072918;28;20477;-53
2021/05/27 03:18:41;;;;;;;0.60;0.53;;;10.40;99.90;;;;;;5073857;28;20665;-54
2021/05/27 03:21:07;;;;;;;0.77;0.70;;;10.50;99.90;;;;;;5073404;28;20505;-53
2021/05/27 03:23:34;;;;;;;1.43;0.80;;;10.60;99.90;;;;;;5073259;28;20449;-53
2021/05/27 03:26:01;;;;;;;1.90;1.80;;;10.60;99.90;;;;;;5071875;28;20447;-53
2021/05/27 03:28:28;;;;;;;1.20;0.90;;;10.60;99.90;;;;;;5065718;28;20949;-53
2021/05/27 03:30:54;;;;;;;1.00;0.80;;;10.60;99.90;;;;;;5069441;28;20500;-54
2021/05/27 03:33:21;;;;;;;0.87;0.70;;;10.50;99.90;;;;;;5075502;28;20478;-53
2021/05/27 05:49:39;;;;;;;2.00;1.90;;;11.00;99.90;;;;;;4700030;30;20621;-50
2021/05/27 05:52:31;;;;;;;1.73;1.63;;;11.10;99.90;;;;;;4771749;29;20486;-50
2021/05/27 05:54:57;;;;;;;2.10;1.40;;;11.10;99.90;;;;;;4900602;29;20449;-50
2021/05/27 05:57:24;;;;;;;2.67;1.67;;;11.00;99.90;;;;;;4931806;29;20469;-50
2021/05/27 05:59:50;;;;;;;1.60;1.50;;;10.80;99.90;;;;;;4979657;28;20969;-51
2021/05/27 06:02:17;;;;;;;3.43;1.80;;;10.80;99.90;;;;;;5037123;28;20473;-50
2021/05/27 06:11:40;;;;;;;6.23;1.50;;;10.80;99.90;;;;;;5094138;28;20533;-49
2021/05/27 06:14:07;;;;;;;3.20;1.93;;;10.80;99.90;;;;;;5094211;28;20981;-49
2021/05/27 06:16:33;;;;;;;2.37;2.17;;;10.90;99.90;;;;;;5101507;22;20494;-53
2021/05/27 06:19:00;;;;;;;13.80;11.83;;;10.80;99.90;;;;;;5090392;28;20438;-52
2021/05/27 06:21:26;;;;;;;15.40;13.80;;;10.60;99.90;;;;;;5087760;28;20507;-52
2021/05/27 06:23:53;;;;;;;5.80;5.13;;;10.30;99.90;;;;;;5073771;28;20449;-53
2021/05/27 06:26:19;;;;;;;4.63;3.03;;;10.30;99.90;;;;;;5081301;28;20829;-53
2021/05/27 06:28:47;;;;;;;4.73;4.33;;;10.30;99.90;;;;;;5074584;28;20453;-52
2021/05/27 06:31:13;;;;;;;3.43;2.33;;;10.30;99.90;;;;;;5082628;28;20449;-53
2021/05/27 06:33:40;;;;;;;3.30;3.00;;;10.40;99.90;;;;;;5082849;28;20528;-53
2021/05/27 06:36:07;;;;;;;2.30;2.10;;;10.40;99.90;;;;;;5079230;28;20453;-53
2021/05/27 06:38:34;;;;;;;3.87;2.90;;;10.40;99.90;;;;;;5093766;28;20478;-53
2021/05/27 06:41:01;;;;;;;4.43;2.50;;;10.40;99.90;;;;;;5082936;28;20446;-52
2021/05/27 06:43:28;;;;;;;5.67;2.60;;;10.30;99.90;;;;;;5072630;28;20517;-52
2021/05/27 06:45:57;;;;;;;2.50;2.20;;;10.40;99.90;;;;;;5071633;28;20507;-52
2021/05/27 06:48:23;;;;;;;3.20;2.07;;;10.40;99.90;;;;;;5072911;28;21041;-52
2021/05/27 06:50:51;;;;;;;1.30;1.20;;;10.40;99.90;;;;;;5073394;28;20473;-53
2021/05/27 06:53:17;;;;;;;2.03;1.20;;;10.60;99.90;;;;;;5075639;28;20486;-53
2021/05/27 06:55:45;;;;;;;3.50;1.73;;;10.40;99.90;;;;;;5073103;28;20443;-53
2021/05/27 06:58:12;;;;;;;1.90;1.47;;;10.50;99.90;;;;;;5072428;28;20470;-53
2021/05/27 07:00:40;;;;;;;3.00;1.27;;;10.70;99.90;;;;;;5073029;28;20451;-53
2021/05/27 07:03:08;;;;;;;1.57;1.47;;;10.80;99.90;;;;;;5072708;28;20834;-53
2021/05/27 07:05:36;;;;;;;1.07;0.90;;;11.00;99.90;;;;;;5073101;28;20453;-53
2021/05/27 07:08:06;;;;;;;0.83;0.83;;;11.10;99.90;;;;;;5073306;28;20474;-53
2021/05/27 07:10:33;;;;;;;1.10;1.00;;;11.10;99.90;;;;;;5072475;28;20458;-53
2021/05/27 07:13:00;;;;;;;1.47;1.27;;;11.30;99.90;;;;;;5071784;28;20508;-53
2021/05/27 07:15:28;;;;;;;1.40;0.93;;;11.40;99.90;;;;;;5073229;28;20504;-53
2021/05/27 07:17:55;;;;;;;1.30;1.20;;;11.50;99.90;;;;;;5073089;28;20478;-53
2021/05/27 07:20:24;;;;;;;1.30;1.20;;;11.60;99.90;;;;;;5073328;28;20972;-53
2021/05/27 07:22:52;;;;;;;1.20;0.97;;;11.60;99.90;;;;;;5060075;28;20459;-53
2021/05/27 07:25:20;;;;;;;1.43;1.10;;;11.70;99.90;;;;;;5072094;28;20953;-53
2021/05/27 07:27:49;;;;;;;1.20;1.10;;;11.60;99.90;;;;;;5073752;28;20490;-53
2021/05/27 07:30:17;;;;;;;1.30;1.20;;;11.40;99.90;;;;;;5076238;28;20455;-53
2021/05/27 07:32:44;;;;;;;4.67;2.10;;;11.50;99.90;;;;;;5085904;28;20486;-52
2021/05/27 07:35:11;;;;;;;2.57;1.30;;;11.70;99.90;;;;;;5079971;28;20853;-53
2021/05/27 07:37:38;;;;;;;1.10;1.00;;;11.60;99.90;;;;;;5085582;28;20475;-53
2021/05/27 07:40:07;;;;;;;2.83;0.90;;;11.60;99.90;;;;;;5078075;28;20856;-53
2021/05/27 07:42:34;;;;;;;1.93;1.00;;;11.70;99.90;;;;;;5092853;28;20434;-53
2021/05/27 07:45:01;;;;;;;0.93;0.90;;;11.90;99.90;;;;;;5075186;28;20446;-53
2021/05/27 07:47:29;;;;;;;1.20;0.83;;;11.90;99.90;;;;;;5071874;28;20549;-53
2021/05/27 07:49:55;;;;;;;1.37;0.80;;;11.90;99.90;;;;;;5073302;28;20454;-53
2021/05/27 07:52:22;;;;;;;1.30;0.90;;;11.90;99.90;;;;;;5072731;28;20482;-53
2021/05/27 07:54:49;;;;;;;0.90;0.90;;;11.70;99.90;;;;;;5072789;28;20442;-53
2021/05/27 07:57:16;;;;;;;1.30;1.00;;;11.80;99.90;;;;;;5072632;28;20474;-53
2021/05/27 07:59:42;;;;;;;1.57;0.90;;;12.10;99.90;;;;;;5072297;28;20450;-53
2021/05/27 08:02:09;;;;;;;0.83;0.83;;;12.30;99.90;;;;;;5066361;28;20836;-54
2021/05/27 08:04:36;;;;;;;1.10;1.00;;;12.40;99.90;;;;;;5070036;28;20450;-53
2021/05/27 08:07:02;;;;;;;1.23;1.00;;;12.60;99.90;;;;;;5072077;28;20817;-53
2021/05/27 08:09:29;;;;;;;0.90;0.77;;;12.60;99.90;;;;;;5072589;28;20447;-53
2021/05/27 08:11:56;;;;;;;1.00;0.90;;;12.30;99.90;;;;;;5072428;28;20955;-54
2021/05/27 08:14:24;;;;;;;1.23;0.90;;;11.80;99.90;;;;;;5071684;28;20817;-53
2021/05/27 08:16:50;;;;;;;1.30;0.93;;;11.30;99.90;;;;;;5071826;28;20479;-53
2021/05/27 08:19:17;;;;;;;0.80;0.80;;;11.40;99.90;;;;;;5072295;28;20504;-54
2021/05/27 08:21:44;;;;;;;0.70;0.70;;;11.60;99.90;;;;;;5072060;28;20447;-55
2021/05/27 08:24:11;;;;;;;1.10;1.00;;;11.80;99.90;;;;;;5071214;28;20443;-53
2021/05/27 08:26:37;;;;;;;1.20;1.07;;;11.50;99.90;;;;;;5072438;28;20501;-53
2021/05/27 08:29:06;;;;;;;1.47;1.17;;;11.60;99.90;;;;;;5070060;28;20463;-54
2021/05/27 08:31:32;;;;;;;2.90;1.00;;;11.80;99.90;;;;;;5068074;28;20443;-53
2021/05/27 08:33:59;;;;;;;1.00;0.90;;;12.10;99.90;;;;;;5071614;28;20487;-53
2021/05/27 08:36:25;;;;;;;1.20;1.10;;;12.20;99.90;;;;;;5071932;28;20505;-53
2021/05/27 08:38:52;;;;;;;1.20;1.10;;;12.30;99.90;;;;;;5074230;28;20481;-53
2021/05/27 08:41:20;;;;;;;1.10;1.00;;;12.40;99.90;;;;;;5071611;28;20504;-53
2021/05/27 08:43:48;;;;;;;1.23;1.00;;;12.40;99.90;;;;;;5071230;28;20446;-53
2021/05/27 08:46:16;;;;;;;1.23;1.13;;;12.30;99.90;;;;;;5070722;28;20987;-54
2021/05/27 08:48:43;;;;;;;4.23;1.40;;;12.40;99.90;;;;;;5070599;28;20712;-53
2021/05/27 08:51:10;;;;;;;1.33;0.93;;;12.40;99.90;;;;;;5071233;28;20454;-53
2021/05/27 08:53:37;;;;;;;3.47;1.00;;;12.40;99.90;;;;;;5071067;28;20482;-53
2021/05/27 08:56:04;;;;;;;1.97;1.13;;;12.40;99.90;;;;;;5070949;28;20458;-54
2021/05/27 08:58:31;;;;;;;1.40;1.10;;;12.50;99.90;;;;;;5074811;28;20470;-53
2021/05/27 09:00:58;;;;;;;1.80;1.27;;;12.50;99.90;;;;;;5070957;28;20829;-53
2021/05/27 09:03:40;;;;;;;2.13;1.40;;;12.40;99.90;;;;;;5070861;28;20447;-54
2021/05/27 09:06:06;;;;;;;2.17;1.43;;;12.60;99.90;;;;;;5070677;28;20450;-54
2021/05/27 09:08:36;;;;;;;1.10;0.97;;;12.70;99.90;;;;;;5070657;28;20455;-55
2021/05/27 09:11:04;;;;;;;1.57;1.10;;;12.90;99.90;;;;;;5070862;28;20530;-53
2021/05/27 09:13:31;;;;;;;2.17;1.00;;;13.00;99.90;;;;;;5070470;28;20482;-51
2021/05/27 09:16:07;;;;;;;2.10;1.13;;;12.90;99.90;;;;;;5070716;28;20451;-53
2021/05/27 09:18:35;;;;;;;1.67;1.10;;;12.80;99.90;;;;;;5070426;28;20462;-57
2021/05/27 09:21:06;;;;;;;1.60;1.20;;;12.70;99.90;;;;;;5070903;28;20443;-54
2021/05/27 09:23:32;;;;;;;1.63;0.93;;;12.70;99.90;;;;;;5070759;28;20531;-53
2021/05/27 09:26:07;;;;;;;1.83;1.00;;;12.60;99.90;;;;;;5070344;28;20450;-53
2021/05/27 09:28:34;;;;;;;1.50;1.40;;;12.50;99.90;;;;;;5070358;28;20972;-54
2021/05/27 09:31:03;;;;;;;1.30;1.13;;;12.20;99.90;;;;;;5070826;28;20500;-53
2021/05/27 09:33:32;;;;;;;1.40;1.00;;;12.40;99.90;;;;;;5070763;28;20478;-54
2021/05/27 09:36:07;;;;;;;0.93;0.83;;;12.60;99.90;;;;;;5071602;28;21016;-54
2021/05/27 09:38:36;;;;;;;3.20;0.87;;;12.60;99.90;;;;;;5074957;28;20450;-54
2021/05/27 09:41:15;;;;;;;1.67;1.00;;;12.60;99.90;;;;;;5071547;28;20507;-53
2021/05/27 09:43:43;;;;;;;1.57;0.90;;;12.50;99.90;;;;;;5071788;28;20500;-53
2021/05/27 09:46:10;;;;;;;1.20;1.10;;;12.50;99.90;;;;;;5076232;28;20447;-53
2021/05/27 09:48:37;;;;;;;1.30;1.10;;;12.50;99.90;;;;;;5075132;28;20446;-53
2021/05/27 09:51:05;;;;;;;1.20;0.70;;;12.50;99.90;;;;;;5075430;28;20439;-53
2021/05/27 09:53:33;;;;;;;0.90;0.90;;;12.60;99.90;;;;;;5075362;28;20485;-54
2021/05/27 09:56:01;;;;;;;0.87;0.80;;;12.40;99.90;;;;;;5067793;28;20520;-53
2021/05/27 09:58:28;;;;;;;2.70;1.50;;;12.50;99.90;;;;;;5074396;28;21002;-53
2021/05/27 10:00:55;;;;;;;1.43;1.20;;;12.40;99.90;;;;;;5074925;28;20454;-53
2021/05/27 10:03:27;;;;;;;2.07;1.23;;;12.50;99.90;;;;;;5074403;28;20492;-53
2021/05/27 10:05:54;;;;;;;1.20;1.10;;;12.60;99.90;;;;;;5074482;28;20458;-53
2021/05/27 10:08:22;;;;;;;4.50;1.30;;;12.60;99.90;;;;;;5074663;28;20983;-53
2021/05/27 10:10:49;;;;;;;1.20;1.10;;;12.30;99.90;;;;;;5074427;28;20451;-53
2021/05/27 10:13:17;;;;;;;1.13;1.03;;;12.30;99.90;;;;;;5074287;28;20999;-54
2021/05/27 10:15:46;;;;;;;2.53;1.17;;;12.40;99.90;;;;;;5078123;28;20529;-53
2021/05/27 10:18:16;;;;;;;3.30;1.07;;;12.60;99.90;;;;;;5074613;28;20481;-53
2021/05/27 10:20:43;;;;;;;1.40;1.00;;;12.30;99.90;;;;;;5073983;28;20455;-53
2021/05/27 10:23:09;;;;;;;1.40;1.30;;;11.80;99.90;;;;;;5077576;28;20820;-53
2021/05/27 10:25:37;;;;;;;1.40;1.30;;;11.50;99.90;;;;;;5076396;28;20447;-53
2021/05/27 10:28:08;;;;;;;1.30;1.13;;;11.60;99.90;;;;;;5074365;28;20622;-52
2021/05/27 10:30:37;;;;;;;1.67;1.33;;;12.00;99.90;;;;;;5073859;28;20446;-53
2021/05/27 10:33:07;;;;;;;2.33;1.73;;;12.40;99.90;;;;;;5073899;28;20525;-53
2021/05/27 10:35:49;;;;;;;2.50;1.90;;;12.60;99.90;;;;;;5081293;28;20813;-53
2021/05/27 10:38:16;;;;;;;5.83;2.27;;;12.50;99.90;;;;;;5076318;28;20470;-53
2021/05/27 10:40:48;;;;;;;3.30;2.30;;;12.70;99.90;;;;;;5074027;28;20856;-53
2021/05/27 10:43:16;;;;;;;2.20;2.00;;;12.90;99.90;;;;;;5073638;28;20470;-53
2021/05/27 10:46:01;;;;;;;2.10;1.90;;;12.60;99.90;;;;;;5073176;28;20516;-53
2021/05/27 10:48:29;;;;;;;3.07;2.47;;;12.10;99.90;;;;;;5071807;28;20462;-53
2021/05/27 10:51:09;;;;;;;2.33;2.13;;;11.80;99.90;;;;;;5073476;28;20439;-53
2021/05/27 10:53:55;;;;;;;1.70;1.60;;;11.90;99.90;;;;;;5081871;28;20485;-53
2021/05/27 10:56:43;;;;;;;1.60;1.50;;;12.20;99.90;;;;;;5073314;28;20450;-53
2021/05/27 10:59:10;;;;;;;1.90;1.33;;;12.40;99.90;;;;;;5073496;28;20439;-54
2021/05/27 11:01:57;;;;;;;1.77;1.50;;;12.40;99.90;;;;;;5073164;28;20435;-53
2021/05/27 11:04:27;;;;;;;1.67;1.57;;;12.20;99.90;;;;;;5073417;28;20469;-54
2021/05/27 11:07:17;;;;;;;2.50;1.60;;;12.20;99.90;;;;;;5072738;28;20999;-55
2021/05/27 11:09:46;;;;;;;1.73;1.63;;;12.30;99.90;;;;;;5073057;28;20504;-54
2021/05/27 11:12:16;;;;;;;1.90;1.60;;;12.40;99.90;;;;;;5072662;28;20443;-53
2021/05/27 11:14:46;;;;;;;2.60;2.03;;;12.50;99.90;;;;;;5072898;28;20451;-57
2021/05/27 11:17:17;;;;;;;2.00;1.40;;;13.00;99.90;;;;;;5072632;28;20471;-53
2021/05/27 11:19:48;;;;;;;2.13;1.80;;;13.30;99.90;;;;;;5072956;28;20501;-52
2021/05/27 11:25:36;;;;;;;1.90;1.80;;;13.10;99.90;;;;;;5085779;28;20905;-53
2021/05/27 11:28:29;;;;;;;1.87;1.77;;;12.90;99.90;;;;;;5072398;28;20469;-54
2021/05/27 11:30:58;;;;;;;1.70;1.60;;;13.00;99.90;;;;;;5070041;28;20955;-53
2021/05/27 11:33:41;;;;;;;1.70;1.60;;;13.20;99.90;;;;;;5075105;28;20474;-53
2021/05/27 11:36:28;;;;;;;1.50;1.40;;;13.50;99.90;;;;;;5069267;28;20443;-53
2021/05/27 11:38:55;;;;;;;1.90;1.80;;;13.50;99.90;;;;;;5071360;28;20964;-53
2021/05/27 11:41:22;;;;;;;1.20;1.20;;;13.50;99.90;;;;;;5072565;28;20443;-54
2021/05/27 11:43:57;;;;;;;1.37;1.20;;;13.60;99.90;;;;;;5072090;28;20947;-57
2021/05/27 11:46:29;;;;;;;1.37;1.27;;;13.50;99.90;;;;;;5072628;28;20447;-53
2021/05/27 11:48:58;;;;;;;1.97;1.20;;;13.60;99.90;;;;;;5072467;28;20511;-53
2021/05/27 11:51:37;;;;;;;1.47;1.37;;;13.60;99.90;;;;;;5074688;28;20453;-53
2021/05/27 11:54:06;;;;;;;1.70;1.50;;;13.80;99.90;;;;;;5090942;28;20857;-54
2021/05/27 11:56:44;;;;;;;1.87;1.47;;;13.80;99.90;;;;;;5080941;28;20870;-53
2021/05/27 11:59:14;;;;;;;1.33;1.23;;;13.60;99.90;;;;;;5071495;28;20454;-53
2021/05/27 12:01:42;;;;;;;1.43;1.20;;;13.70;99.90;;;;;;5074244;28;20820;-53
2021/05/27 12:04:14;;;;;;;1.70;1.20;;;13.40;99.90;;;;;;5090851;28;20517;-53
2021/05/27 12:07:05;;;;;;;1.60;1.50;;;13.50;99.90;;;;;;5081019;28;20540;-53
2021/05/27 12:09:35;;;;;;;1.83;1.33;;;13.60;99.90;;;;;;5069969;28;20931;-53
2021/05/27 12:12:13;;;;;;;1.60;1.30;;;13.80;99.90;;;;;;5071983;28;20449;-54
2021/05/27 12:14:45;;;;;;;2.73;1.33;;;14.00;99.90;;;;;;5071637;28;20494;-54
2021/05/27 12:17:26;;;;;;;1.50;1.40;;;14.10;99.90;;;;;;5072289;28;20471;-52
2021/05/27 12:19:55;;;;;;;1.93;1.53;;;14.20;99.90;;;;;;5091337;28;20460;-54
2021/05/27 12:22:22;;;;;;;2.17;1.50;;;14.00;99.90;;;;;;5112889;22;20887;-49
2021/05/27 12:25:08;;;;;;;1.50;1.40;;;13.90;99.90;;;;;;5079090;28;20835;-49
2021/05/27 12:27:42;;;;;;;2.17;1.47;;;14.00;99.90;;;;;;5069418;28;20438;-49
2021/05/27 12:30:10;;;;;;;1.47;1.30;;;14.30;99.90;;;;;;5073775;28;20521;-49
2021/05/27 12:32:41;;;;;;;1.53;1.17;;;14.50;99.90;;;;;;5077505;28;20468;-49
2021/05/27 12:35:09;;;;;;;2.03;1.10;;;14.60;99.90;;;;;;5062222;28;20443;-50
2021/05/27 12:37:45;;;;;;;1.47;1.37;;;14.80;99.90;;;;;;5068611;28;20841;-48
2021/05/27 12:40:13;;;;;;;1.40;1.30;;;14.60;99.90;;;;;;5058319;28;20450;-50
2021/05/27 12:42:39;;;;;;;2.00;1.90;;;14.50;99.90;;;;;;5051872;28;20476;-49
2021/05/27 12:45:30;;;;;;;1.60;1.50;;;14.60;99.90;;;;;;5052161;28;20458;-49
2021/05/27 12:48:17;;;;;;;3.10;2.20;;;14.80;99.90;;;;;;5031982;28;20453;-49
2021/05/27 12:51:04;;;;;;;1.67;1.57;;;15.00;99.90;;;;;;5054975;28;20451;-48
2021/05/27 12:53:33;;;;;;;1.83;1.17;;;15.00;99.90;;;;;;5062779;28;20486;-50
2021/05/27 12:56:12;;;;;;;1.30;1.20;;;15.30;99.90;;;;;;5065131;28;20452;-49
2021/05/27 12:58:40;;;;;;;1.10;1.07;;;15.60;99.90;;;;;;5062895;28;20454;-49
2021/05/27 13:01:08;;;;;;;1.00;1.00;;;15.50;99.90;;;;;;5070302;28;20500;-50
2021/05/27 13:03:48;;;;;;;1.17;1.07;;;15.90;99.90;;;;;;5061473;28;20455;-48
2021/05/27 13:06:17;;;;;;;1.67;1.03;;;16.00;99.90;;;;;;5064450;28;20497;-49
2021/05/27 13:08:44;;;;;;;1.30;1.20;;;15.60;99.90;;;;;;5062936;28;20500;-49
2021/05/27 13:11:29;;;;;;;1.37;1.20;;;14.80;99.90;;;;;;5069993;28;20939;-48
2021/05/27 13:13:57;;;;;;;1.40;1.10;;;14.60;99.90;;;;;;5070047;28;20555;-49
2021/05/27 13:16:39;;;;;;;1.10;1.00;;;14.50;99.90;;;;;;5067925;28;20461;-49
2021/05/27 13:19:08;;;;;;;2.43;1.27;;;14.80;99.90;;;;;;5070292;28;20477;-48
2021/05/27 13:21:47;;;;;;;1.30;1.17;;;14.60;99.90;;;;;;5070103;28;20450;-48
2021/05/27 13:24:16;;;;;;;1.50;1.20;;;14.60;99.90;;;;;;5069957;28;20517;-50
2021/05/27 13:26:42;;;;;;;1.50;1.40;;;14.50;99.90;;;;;;5067366;28;20450;-49
2021/05/27 13:29:09;;;;;;;2.03;1.50;;;14.40;99.90;;;;;;5051956;28;20447;-49
2021/05/27 13:31:37;;;;;;;2.30;1.40;;;14.60;99.90;;;;;;5052524;28;20443;-48
2021/05/27 13:34:04;;;;;;;1.50;1.30;;;14.80;99.90;;;;;;5051374;28;20857;-50
2021/05/27 13:36:39;;;;;;;1.40;1.30;;;14.90;99.90;;;;;;5063255;28;20442;-50
2021/05/27 13:39:13;;;;;;;1.20;1.10;;;14.70;99.90;;;;;;5064802;28;21034;-50
2021/05/27 13:41:40;;;;;;;1.93;1.20;;;14.90;99.90;;;;;;5070182;28;20434;-49
2021/05/27 13:44:06;;;;;;;1.60;1.50;;;15.00;99.90;;;;;;5069946;28;20443;-49
2021/05/27 13:46:33;;;;;;;1.00;0.90;;;15.00;99.90;;;;;;5068383;28;20443;-49
2021/05/27 13:48:59;;;;;;;1.70;1.10;;;14.80;99.90;;;;;;5069511;28;20520;-49
2021/05/27 13:51:26;;;;;;;2.23;1.30;;;15.20;99.90;;;;;;5070125;28;20443;-49
2021/05/27 13:53:53;;;;;;;1.30;1.10;;;15.40;99.90;;;;;;5069648;28;20543;-49
2021/05/27 13:56:21;;;;;;;1.87;1.07;;;15.50;99.90;;;;;;5069885;28;20442;-49
2021/05/27 13:58:51;;;;;;;1.50;1.40;;;15.40;99.90;;;;;;5067478;28;20455;-49
2021/05/27 14:01:17;;;;;;;1.83;1.60;;;15.50;99.90;;;;;;5066051;28;20446;-49
2021/05/27 14:03:44;;;;;;;2.20;1.40;;;15.30;99.90;;;;;;5069715;28;20465;-49
2021/05/27 14:06:10;;;;;;;1.93;1.83;;;15.40;99.90;;;;;;5067406;28;20542;-50
2021/05/27 14:08:37;;;;;;;2.00;1.57;;;15.50;99.90;;;;;;5055091;28;20456;-49
2021/05/27 14:11:05;;;;;;;1.70;1.50;;;15.70;99.90;;;;;;5051124;28;20459;-49
2021/05/27 14:13:31;;;;;;;1.70;1.50;;;15.70;99.90;;;;;;5050667;28;20483;-49
2021/05/27 14:15:58;;;;;;;1.67;1.57;;;15.60;99.90;;;;;;5050474;28;20454;-49
2021/05/27 14:18:24;;;;;;;2.23;1.90;;;15.50;99.90;;;;;;5050488;28;20456;-49
2021/05/27 14:20:51;;;;;;;2.03;1.83;;;15.30;99.90;;;;;;5050916;28;20443;-49
2021/05/27 14:23:17;;;;;;;2.93;1.63;;;15.20;99.90;;;;;;5051480;28;20538;-49
2021/05/27 14:25:44;;;;;;;1.90;1.70;;;15.00;99.90;;;;;;5054458;28;20835;-49
2021/05/27 14:28:11;;;;;;;1.90;1.80;;;14.80;99.90;;;;;;5053284;28;20902;-49
2021/05/27 14:30:38;;;;;;;4.20;1.93;;;14.60;99.90;;;;;;5053961;28;20980;-49
2021/05/27 14:33:04;;;;;;;2.03;1.70;;;14.30;99.90;;;;;;5054284;28;20489;-49
2021/05/27 14:35:31;;;;;;;1.83;1.73;;;14.00;99.90;;;;;;5054179;28;20448;-49
2021/05/27 14:37:57;;;;;;;3.10;2.00;;;13.90;99.90;;;;;;5053035;28;20447;-48
2021/05/27 14:40:24;;;;;;;1.90;1.80;;;13.70;99.90;;;;;;5054464;28;20453;-48
2021/05/27 14:42:50;;;;;;;2.20;1.90;;;13.50;99.90;;;;;;5054158;28;20494;-49
2021/05/27 14:45:18;;;;;;;1.87;1.77;;;13.50;99.90;;;;;;5053704;28;20832;-49
2021/05/27 14:47:44;;;;;;;2.70;2.00;;;13.70;99.90;;;;;;5047129;28;20492;-49
2021/05/27 14:50:12;;;;;;;1.80;1.70;;;14.10;99.90;;;;;;5054321;28;20448;-49
2021/05/27 14:52:39;;;;;;;2.13;1.70;;;14.40;99.90;;;;;;5053565;28;20479;-48
2021/05/27 14:55:06;;;;;;;1.80;1.70;;;14.40;99.90;;;;;;5053944;28;20452;-49
2021/05/27 14:57:34;;;;;;;1.87;1.60;;;14.70;99.90;;;;;;5054397;28;20454;-49
2021/05/27 15:00:02;;;;;;;2.00;1.70;;;14.80;99.90;;;;;;5053494;28;20985;-49
2021/05/27 15:02:29;;;;;;;2.00;1.80;;;14.80;99.90;;;;;;5054109;28;20472;-49
2021/05/27 15:04:55;;;;;;;2.30;1.70;;;14.80;99.90;;;;;;5052973;28;20471;-49
2021/05/27 15:07:22;;;;;;;1.90;1.57;;;14.90;99.90;;;;;;5053207;28;20500;-50
2021/05/27 15:09:48;;;;;;;1.60;1.50;;;14.90;99.90;;;;;;5053635;28;20456;-48
2021/05/27 15:12:18;;;;;;;4.00;1.70;;;15.00;99.90;;;;;;5053721;28;20474;-49
2021/05/27 15:14:45;;;;;;;1.80;1.67;;;15.10;99.90;;;;;;5053149;28;20480;-49
2021/05/27 15:17:11;;;;;;;2.60;1.67;;;15.10;99.90;;;;;;5053146;28;20459;-48
2021/05/27 15:19:38;;;;;;;1.80;1.70;;;15.20;99.90;;;;;;5053654;28;20456;-50